sensor_id;sensor_type;location;lat;lon;timestamp;P1;durP1;ratioP1;P2;durP2;ratioP2
18206;SDS011;9229;52.354;20.886;2023-05-10T00:02:20;15.73;;;6.28;;
18206;SDS011;9229;52.354;20.886;2023-05-10T00:07:24;10.50;;;6.20;;
18206;SDS011;9229;52.354;20.886;2023-05-10T00:12:26;13.98;;;6.43;;
18206;SDS011;9229;52.354;20.886;2023-05-10T00:17:28;8.60;;;6.28;;
18206;SDS011;9229;52.354;20.886;2023-05-10T00:22:32;7.85;;;6.10;;
18206;SDS011;9229;52.354;20.886;2023-05-10T00:27:35;8.77;;;6.18;;
18206;SDS011;9229;52.354;20.886;2023-05-10T00:32:40;13.10;;;6.82;;
18206;SDS011;9229;52.354;20.886;2023-05-10T00:37:44;17.75;;;6.78;;
18206;SDS011;9229;52.354;20.886;2023-05-10T00:42:47;9.38;;;5.40;;
18206;SDS011;9229;52.354;20.886;2023-05-10T00:47:50;9.57;;;5.75;;
18206;SDS011;9229;52.354;20.886;2023-05-10T00:52:56;9.13;;;6.10;;
18206;SDS011;9229;52.354;20.886;2023-05-10T00:58:00;12.00;;;6.70;;
18206;SDS011;9229;52.354;20.886;2023-05-10T01:03:03;10.75;;;6.15;;
18206;SDS011;9229;52.354;20.886;2023-05-10T01:08:06;15.48;;;5.70;;
18206;SDS011;9229;52.354;20.886;2023-05-10T01:13:10;7.50;;;5.88;;
18206;SDS011;9229;52.354;20.886;2023-05-10T01:18:12;10.57;;;6.07;;
18206;SDS011;9229;52.354;20.886;2023-05-10T01:23:30;9.23;;;6.18;;
18206;SDS011;9229;52.354;20.886;2023-05-10T01:28:58;9.48;;;5.75;;
18206;SDS011;9229;52.354;20.886;2023-05-10T01:34:25;6.28;;;5.68;;
18206;SDS011;9229;52.354;20.886;2023-05-10T01:39:36;6.93;;;5.70;;
18206;SDS011;9229;52.354;20.886;2023-05-10T01:44:46;11.50;;;6.03;;
18206;SDS011;9229;52.354;20.886;2023-05-10T01:49:56;8.23;;;5.53;;
18206;SDS011;9229;52.354;20.886;2023-05-10T01:55:05;8.80;;;6.07;;
18206;SDS011;9229;52.354;20.886;2023-05-10T02:00:11;24.52;;;6.85;;
18206;SDS011;9229;52.354;20.886;2023-05-10T02:05:17;11.32;;;5.60;;
18206;SDS011;9229;52.354;20.886;2023-05-10T02:10:21;11.77;;;6.15;;
18206;SDS011;9229;52.354;20.886;2023-05-10T02:15:23;9.60;;;5.63;;
18206;SDS011;9229;52.354;20.886;2023-05-10T02:20:29;10.98;;;5.70;;
18206;SDS011;9229;52.354;20.886;2023-05-10T02:25:33;6.28;;;4.78;;
18206;SDS011;9229;52.354;20.886;2023-05-10T02:30:36;9.70;;;5.88;;
18206;SDS011;9229;52.354;20.886;2023-05-10T02:35:43;7.88;;;5.43;;
18206;SDS011;9229;52.354;20.886;2023-05-10T02:40:45;7.65;;;5.57;;
18206;SDS011;9229;52.354;20.886;2023-05-10T02:45:49;11.23;;;5.20;;
18206;SDS011;9229;52.354;20.886;2023-05-10T02:50:52;10.93;;;5.25;;
18206;SDS011;9229;52.354;20.886;2023-05-10T02:55:58;7.85;;;5.10;;
18206;SDS011;9229;52.354;20.886;2023-05-10T03:01:03;7.85;;;5.32;;
18206;SDS011;9229;52.354;20.886;2023-05-10T03:06:09;9.60;;;5.25;;
18206;SDS011;9229;52.354;20.886;2023-05-10T03:11:16;8.98;;;5.20;;
18206;SDS011;9229;52.354;20.886;2023-05-10T03:16:35;8.00;;;5.10;;
18206;SDS011;9229;52.354;20.886;2023-05-10T03:21:49;7.43;;;4.93;;
18206;SDS011;9229;52.354;20.886;2023-05-10T03:26:54;11.25;;;4.90;;
18206;SDS011;9229;52.354;20.886;2023-05-10T03:31:59;10.48;;;4.88;;
18206;SDS011;9229;52.354;20.886;2023-05-10T03:37:05;9.77;;;5.20;;
18206;SDS011;9229;52.354;20.886;2023-05-10T03:42:08;10.93;;;4.82;;
18206;SDS011;9229;52.354;20.886;2023-05-10T03:47:12;15.43;;;4.75;;
18206;SDS011;9229;52.354;20.886;2023-05-10T03:52:15;10.13;;;4.80;;
18206;SDS011;9229;52.354;20.886;2023-05-10T03:57:18;9.95;;;5.00;;
18206;SDS011;9229;52.354;20.886;2023-05-10T04:02:20;8.90;;;4.60;;
18206;SDS011;9229;52.354;20.886;2023-05-10T04:07:24;6.03;;;4.72;;
18206;SDS011;9229;52.354;20.886;2023-05-10T04:12:26;12.13;;;4.85;;
18206;SDS011;9229;52.354;20.886;2023-05-10T04:17:28;7.32;;;4.68;;
18206;SDS011;9229;52.354;20.886;2023-05-10T04:22:31;5.18;;;4.43;;
18206;SDS011;9229;52.354;20.886;2023-05-10T04:27:33;7.00;;;5.03;;
18206;SDS011;9229;52.354;20.886;2023-05-10T04:32:36;10.82;;;5.10;;
18206;SDS011;9229;52.354;20.886;2023-05-10T04:37:40;4.88;;;4.13;;
18206;SDS011;9229;52.354;20.886;2023-05-10T04:42:42;5.93;;;4.45;;
18206;SDS011;9229;52.354;20.886;2023-05-10T04:47:46;5.38;;;4.65;;
18206;SDS011;9229;52.354;20.886;2023-05-10T04:52:49;7.57;;;4.63;;
18206;SDS011;9229;52.354;20.886;2023-05-10T04:57:51;7.95;;;4.70;;
18206;SDS011;9229;52.354;20.886;2023-05-10T05:02:55;11.60;;;4.78;;
18206;SDS011;9229;52.354;20.886;2023-05-10T05:07:58;7.88;;;4.32;;
18206;SDS011;9229;52.354;20.886;2023-05-10T05:13:00;6.43;;;4.40;;
18206;SDS011;9229;52.354;20.886;2023-05-10T05:18:02;6.32;;;4.60;;
18206;SDS011;9229;52.354;20.886;2023-05-10T05:23:06;9.00;;;4.53;;
18206;SDS011;9229;52.354;20.886;2023-05-10T05:28:08;5.20;;;4.80;;
18206;SDS011;9229;52.354;20.886;2023-05-10T05:33:11;10.35;;;4.68;;
18206;SDS011;9229;52.354;20.886;2023-05-10T05:38:16;6.00;;;4.38;;
18206;SDS011;9229;52.354;20.886;2023-05-10T05:43:18;10.02;;;4.38;;
18206;SDS011;9229;52.354;20.886;2023-05-10T05:48:20;8.45;;;4.78;;
18206;SDS011;9229;52.354;20.886;2023-05-10T05:53:24;37.85;;;7.18;;
18206;SDS011;9229;52.354;20.886;2023-05-10T05:58:26;7.88;;;4.18;;
18206;SDS011;9229;52.354;20.886;2023-05-10T06:03:28;6.80;;;4.47;;
18206;SDS011;9229;52.354;20.886;2023-05-10T06:08:31;7.55;;;4.30;;
18206;SDS011;9229;52.354;20.886;2023-05-10T06:13:34;4.13;;;3.70;;
18206;SDS011;9229;52.354;20.886;2023-05-10T06:18:36;9.77;;;3.92;;
18206;SDS011;9229;52.354;20.886;2023-05-10T06:23:42;6.20;;;3.63;;
18206;SDS011;9229;52.354;20.886;2023-05-10T06:28:45;13.73;;;4.32;;
18206;SDS011;9229;52.354;20.886;2023-05-10T06:33:47;10.75;;;3.97;;
18206;SDS011;9229;52.354;20.886;2023-05-10T06:38:50;22.42;;;4.38;;
18206;SDS011;9229;52.354;20.886;2023-05-10T06:43:55;11.27;;;3.30;;
18206;SDS011;9229;52.354;20.886;2023-05-10T06:49:00;5.80;;;3.35;;
18206;SDS011;9229;52.354;20.886;2023-05-10T06:54:05;3.65;;;3.25;;
18206;SDS011;9229;52.354;20.886;2023-05-10T06:59:07;19.15;;;4.97;;
18206;SDS011;9229;52.354;20.886;2023-05-10T07:04:09;6.97;;;3.08;;
18206;SDS011;9229;52.354;20.886;2023-05-10T07:09:13;4.43;;;3.53;;
18206;SDS011;9229;52.354;20.886;2023-05-10T07:14:15;9.07;;;3.35;;
18206;SDS011;9229;52.354;20.886;2023-05-10T07:19:17;7.80;;;3.30;;
18206;SDS011;9229;52.354;20.886;2023-05-10T07:24:21;3.33;;;3.03;;
18206;SDS011;9229;52.354;20.886;2023-05-10T07:29:23;8.88;;;2.85;;
18206;SDS011;9229;52.354;20.886;2023-05-10T07:34:26;2.25;;;2.15;;
18206;SDS011;9229;52.354;20.886;2023-05-10T07:39:30;6.72;;;2.83;;
18206;SDS011;9229;52.354;20.886;2023-05-10T07:44:32;5.05;;;2.65;;
18206;SDS011;9229;52.354;20.886;2023-05-10T07:49:34;18.83;;;3.38;;
18206;SDS011;9229;52.354;20.886;2023-05-10T07:54:38;4.75;;;2.50;;
18206;SDS011;9229;52.354;20.886;2023-05-10T07:59:40;6.07;;;2.97;;
18206;SDS011;9229;52.354;20.886;2023-05-10T08:04:44;3.00;;;2.70;;
18206;SDS011;9229;52.354;20.886;2023-05-10T08:09:48;3.40;;;2.88;;
18206;SDS011;9229;52.354;20.886;2023-05-10T08:14:50;3.13;;;2.80;;
18206;SDS011;9229;52.354;20.886;2023-05-10T08:19:52;6.55;;;3.03;;
18206;SDS011;9229;52.354;20.886;2023-05-10T08:24:56;15.82;;;3.10;;
18206;SDS011;9229;52.354;20.886;2023-05-10T08:29:59;4.10;;;2.30;;
18206;SDS011;9229;52.354;20.886;2023-05-10T08:35:05;3.55;;;2.53;;
18206;SDS011;9229;52.354;20.886;2023-05-10T08:40:09;13.95;;;2.40;;
18206;SDS011;9229;52.354;20.886;2023-05-10T08:45:13;6.47;;;2.63;;
18206;SDS011;9229;52.354;20.886;2023-05-10T08:50:17;7.13;;;2.40;;
18206;SDS011;9229;52.354;20.886;2023-05-10T08:55:23;8.18;;;2.53;;
18206;SDS011;9229;52.354;20.886;2023-05-10T09:00:26;5.22;;;2.20;;
18206;SDS011;9229;52.354;20.886;2023-05-10T09:05:29;44.08;;;4.35;;
18206;SDS011;9229;52.354;20.886;2023-05-10T09:10:32;7.50;;;4.88;;
18206;SDS011;9229;52.354;20.886;2023-05-10T09:15:35;12.32;;;3.38;;
18206;SDS011;9229;52.354;20.886;2023-05-10T09:20:36;9.07;;;2.97;;
18206;SDS011;9229;52.354;20.886;2023-05-10T09:25:40;22.30;;;3.45;;
18206;SDS011;9229;52.354;20.886;2023-05-10T09:30:43;8.93;;;3.05;;
18206;SDS011;9229;52.354;20.886;2023-05-10T09:35:55;12.80;;;3.38;;
18206;SDS011;9229;52.354;20.886;2023-05-10T09:41:16;5.97;;;2.45;;
18206;SDS011;9229;52.354;20.886;2023-05-10T09:46:20;2.90;;;2.65;;
18206;SDS011;9229;52.354;20.886;2023-05-10T09:51:34;4.22;;;2.58;;
18206;SDS011;9229;52.354;20.886;2023-05-10T09:56:38;8.57;;;2.35;;
18206;SDS011;9229;52.354;20.886;2023-05-10T10:01:40;4.82;;;2.72;;
18206;SDS011;9229;52.354;20.886;2023-05-10T10:06:42;5.55;;;2.75;;
18206;SDS011;9229;52.354;20.886;2023-05-10T10:11:46;4.57;;;2.65;;
18206;SDS011;9229;52.354;20.886;2023-05-10T10:16:54;21.98;;;3.38;;
18206;SDS011;9229;52.354;20.886;2023-05-10T10:21:56;3.80;;;2.35;;
18206;SDS011;9229;52.354;20.886;2023-05-10T10:27:01;3.47;;;2.45;;
18206;SDS011;9229;52.354;20.886;2023-05-10T10:32:18;3.63;;;2.67;;
18206;SDS011;9229;52.354;20.886;2023-05-10T10:37:40;6.97;;;2.38;;
18206;SDS011;9229;52.354;20.886;2023-05-10T10:42:48;9.88;;;2.63;;
18206;SDS011;9229;52.354;20.886;2023-05-10T10:53:25;3.10;;;2.40;;
18206;SDS011;9229;52.354;20.886;2023-05-10T10:58:31;2.63;;;2.42;;
18206;SDS011;9229;52.354;20.886;2023-05-10T11:03:33;6.82;;;2.55;;
18206;SDS011;9229;52.354;20.886;2023-05-10T11:08:41;4.72;;;2.60;;
18206;SDS011;9229;52.354;20.886;2023-05-10T11:13:49;2.40;;;2.08;;
18206;SDS011;9229;52.354;20.886;2023-05-10T11:18:52;12.95;;;2.15;;
18206;SDS011;9229;52.354;20.886;2023-05-10T11:23:56;5.78;;;2.33;;
18206;SDS011;9229;52.354;20.886;2023-05-10T11:29:01;4.97;;;2.40;;
18206;SDS011;9229;52.354;20.886;2023-05-10T11:34:05;3.58;;;2.67;;
18206;SDS011;9229;52.354;20.886;2023-05-10T11:39:07;11.02;;;3.30;;
18206;SDS011;9229;52.354;20.886;2023-05-10T11:44:12;31.83;;;3.30;;
18206;SDS011;9229;52.354;20.886;2023-05-10T11:49:14;5.30;;;3.10;;
18206;SDS011;9229;52.354;20.886;2023-05-10T11:54:19;3.88;;;2.55;;
18206;SDS011;9229;52.354;20.886;2023-05-10T11:59:23;5.05;;;3.05;;
18206;SDS011;9229;52.354;20.886;2023-05-10T12:04:29;5.22;;;2.58;;
18206;SDS011;9229;52.354;20.886;2023-05-10T12:09:32;180.27;;;9.68;;
18206;SDS011;9229;52.354;20.886;2023-05-10T12:14:36;33.65;;;4.07;;
18206;SDS011;9229;52.354;20.886;2023-05-10T12:19:38;8.55;;;2.47;;
18206;SDS011;9229;52.354;20.886;2023-05-10T12:24:41;2.60;;;2.38;;
18206;SDS011;9229;52.354;20.886;2023-05-10T12:29:46;6.78;;;2.38;;
18206;SDS011;9229;52.354;20.886;2023-05-10T12:34:58;13.13;;;2.67;;
18206;SDS011;9229;52.354;20.886;2023-05-10T12:40:01;2.55;;;2.35;;
18206;SDS011;9229;52.354;20.886;2023-05-10T12:45:10;8.80;;;2.75;;
18206;SDS011;9229;52.354;20.886;2023-05-10T12:50:12;2.95;;;2.60;;
18206;SDS011;9229;52.354;20.886;2023-05-10T12:55:14;3.33;;;2.50;;
18206;SDS011;9229;52.354;20.886;2023-05-10T13:00:18;4.68;;;2.55;;
18206;SDS011;9229;52.354;20.886;2023-05-10T13:05:23;9.13;;;2.80;;
18206;SDS011;9229;52.354;20.886;2023-05-10T13:10:25;8.50;;;2.38;;
18206;SDS011;9229;52.354;20.886;2023-05-10T13:15:31;8.20;;;2.70;;
18206;SDS011;9229;52.354;20.886;2023-05-10T13:20:34;3.35;;;2.58;;
18206;SDS011;9229;52.354;20.886;2023-05-10T13:25:38;3.75;;;2.80;;
18206;SDS011;9229;52.354;20.886;2023-05-10T13:30:43;4.38;;;2.78;;
18206;SDS011;9229;52.354;20.886;2023-05-10T13:35:45;3.95;;;2.70;;
18206;SDS011;9229;52.354;20.886;2023-05-10T13:52:46;7.18;;;2.65;;
18206;SDS011;9229;52.354;20.886;2023-05-10T13:59:04;6.95;;;2.70;;
18206;SDS011;9229;52.354;20.886;2023-05-10T14:04:20;7.20;;;2.83;;
18206;SDS011;9229;52.354;20.886;2023-05-10T14:09:24;5.82;;;2.40;;
18206;SDS011;9229;52.354;20.886;2023-05-10T14:14:27;3.38;;;2.65;;
18206;SDS011;9229;52.354;20.886;2023-05-10T14:19:30;4.30;;;2.28;;
18206;SDS011;9229;52.354;20.886;2023-05-10T14:24:37;5.70;;;2.50;;
18206;SDS011;9229;52.354;20.886;2023-05-10T14:29:43;3.10;;;2.42;;
18206;SDS011;9229;52.354;20.886;2023-05-10T14:34:54;6.53;;;2.30;;
18206;SDS011;9229;52.354;20.886;2023-05-10T14:40:00;14.38;;;3.05;;
18206;SDS011;9229;52.354;20.886;2023-05-10T14:45:07;7.20;;;2.70;;
18206;SDS011;9229;52.354;20.886;2023-05-10T14:50:11;8.77;;;2.92;;
18206;SDS011;9229;52.354;20.886;2023-05-10T14:55:17;9.57;;;2.90;;
18206;SDS011;9229;52.354;20.886;2023-05-10T15:00:24;2.60;;;2.35;;
18206;SDS011;9229;52.354;20.886;2023-05-10T15:05:26;2.45;;;2.35;;
18206;SDS011;9229;52.354;20.886;2023-05-10T15:10:38;2.63;;;2.17;;
18206;SDS011;9229;52.354;20.886;2023-05-10T15:15:55;2.28;;;2.17;;
18206;SDS011;9229;52.354;20.886;2023-05-10T15:20:57;11.73;;;2.42;;
18206;SDS011;9229;52.354;20.886;2023-05-10T15:26:01;3.20;;;2.88;;
18206;SDS011;9229;52.354;20.886;2023-05-10T15:31:05;4.38;;;2.80;;
18206;SDS011;9229;52.354;20.886;2023-05-10T15:36:07;7.47;;;2.35;;
18206;SDS011;9229;52.354;20.886;2023-05-10T15:41:11;4.38;;;2.42;;
18206;SDS011;9229;52.354;20.886;2023-05-10T15:46:13;3.75;;;2.58;;
18206;SDS011;9229;52.354;20.886;2023-05-10T15:51:15;10.15;;;2.22;;
18206;SDS011;9229;52.354;20.886;2023-05-10T15:56:19;29.30;;;3.30;;
18206;SDS011;9229;52.354;20.886;2023-05-10T16:01:21;7.03;;;2.40;;
18206;SDS011;9229;52.354;20.886;2023-05-10T16:06:23;3.10;;;2.15;;
18206;SDS011;9229;52.354;20.886;2023-05-10T16:11:28;4.47;;;2.40;;
18206;SDS011;9229;52.354;20.886;2023-05-10T16:16:30;2.60;;;2.50;;
18206;SDS011;9229;52.354;20.886;2023-05-10T16:21:32;4.85;;;2.47;;
18206;SDS011;9229;52.354;20.886;2023-05-10T16:26:39;2.83;;;2.10;;
18206;SDS011;9229;52.354;20.886;2023-05-10T16:31:41;5.70;;;2.67;;
18206;SDS011;9229;52.354;20.886;2023-05-10T16:36:43;8.57;;;2.63;;
18206;SDS011;9229;52.354;20.886;2023-05-10T16:41:48;2.97;;;2.45;;
18206;SDS011;9229;52.354;20.886;2023-05-10T16:46:50;2.47;;;2.28;;
18206;SDS011;9229;52.354;20.886;2023-05-10T16:51:54;2.60;;;2.28;;
18206;SDS011;9229;52.354;20.886;2023-05-10T16:56:59;3.88;;;2.42;;
18206;SDS011;9229;52.354;20.886;2023-05-10T17:02:01;8.38;;;2.50;;
18206;SDS011;9229;52.354;20.886;2023-05-10T17:07:04;6.13;;;2.30;;
18206;SDS011;9229;52.354;20.886;2023-05-10T17:12:07;7.47;;;2.78;;
18206;SDS011;9229;52.354;20.886;2023-05-10T17:17:10;3.17;;;2.88;;
18206;SDS011;9229;52.354;20.886;2023-05-10T17:22:14;2.55;;;2.20;;
18206;SDS011;9229;52.354;20.886;2023-05-10T17:27:18;9.40;;;2.50;;
18206;SDS011;9229;52.354;20.886;2023-05-10T17:32:24;2.40;;;2.25;;
18206;SDS011;9229;52.354;20.886;2023-05-10T17:37:27;4.22;;;2.65;;
18206;SDS011;9229;52.354;20.886;2023-05-10T17:42:31;3.50;;;2.60;;
18206;SDS011;9229;52.354;20.886;2023-05-10T17:47:33;12.88;;;2.40;;
18206;SDS011;9229;52.354;20.886;2023-05-10T17:52:35;2.85;;;2.70;;
18206;SDS011;9229;52.354;20.886;2023-05-10T17:57:39;7.90;;;2.95;;
18206;SDS011;9229;52.354;20.886;2023-05-10T18:02:42;2.83;;;2.45;;
18206;SDS011;9229;52.354;20.886;2023-05-10T18:07:45;3.97;;;2.20;;
18206;SDS011;9229;52.354;20.886;2023-05-10T18:12:50;3.20;;;2.80;;
18206;SDS011;9229;52.354;20.886;2023-05-10T18:17:52;4.07;;;2.70;;
18206;SDS011;9229;52.354;20.886;2023-05-10T18:22:56;10.00;;;3.30;;
18206;SDS011;9229;52.354;20.886;2023-05-10T18:28:00;3.22;;;3.03;;
18206;SDS011;9229;52.354;20.886;2023-05-10T18:33:03;3.38;;;3.17;;
18206;SDS011;9229;52.354;20.886;2023-05-10T18:38:06;13.43;;;3.42;;
18206;SDS011;9229;52.354;20.886;2023-05-10T18:43:14;3.95;;;2.85;;
18206;SDS011;9229;52.354;20.886;2023-05-10T18:48:18;6.50;;;3.20;;
18206;SDS011;9229;52.354;20.886;2023-05-10T18:53:28;6.22;;;3.55;;
18206;SDS011;9229;52.354;20.886;2023-05-10T18:58:34;9.10;;;3.65;;
18206;SDS011;9229;52.354;20.886;2023-05-10T19:03:37;3.25;;;2.95;;
18206;SDS011;9229;52.354;20.886;2023-05-10T19:08:40;3.67;;;2.88;;
18206;SDS011;9229;52.354;20.886;2023-05-10T19:13:43;5.45;;;3.78;;
18206;SDS011;9229;52.354;20.886;2023-05-10T19:18:46;6.95;;;3.53;;
18206;SDS011;9229;52.354;20.886;2023-05-10T19:23:50;9.73;;;3.42;;
18206;SDS011;9229;52.354;20.886;2023-05-10T19:29:09;5.60;;;3.47;;
18206;SDS011;9229;52.354;20.886;2023-05-10T19:34:28;6.40;;;3.90;;
18206;SDS011;9229;52.354;20.886;2023-05-10T19:39:30;11.07;;;3.75;;
18206;SDS011;9229;52.354;20.886;2023-05-10T19:44:34;8.45;;;3.67;;
18206;SDS011;9229;52.354;20.886;2023-05-10T19:49:38;5.13;;;3.90;;
18206;SDS011;9229;52.354;20.886;2023-05-10T19:54:40;6.95;;;4.07;;
18206;SDS011;9229;52.354;20.886;2023-05-10T19:59:51;6.18;;;4.53;;
18206;SDS011;9229;52.354;20.886;2023-05-10T20:04:54;4.45;;;3.70;;
18206;SDS011;9229;52.354;20.886;2023-05-10T20:09:57;4.93;;;4.40;;
18206;SDS011;9229;52.354;20.886;2023-05-10T20:15:01;5.25;;;4.30;;
18206;SDS011;9229;52.354;20.886;2023-05-10T20:20:12;4.93;;;4.53;;
18206;SDS011;9229;52.354;20.886;2023-05-10T20:25:16;10.52;;;5.00;;
18206;SDS011;9229;52.354;20.886;2023-05-10T20:35:38;5.40;;;4.82;;
18206;SDS011;9229;52.354;20.886;2023-05-10T20:40:40;5.65;;;5.10;;
18206;SDS011;9229;52.354;20.886;2023-05-10T20:45:44;13.45;;;4.85;;
18206;SDS011;9229;52.354;20.886;2023-05-10T20:50:48;7.18;;;5.03;;
18206;SDS011;9229;52.354;20.886;2023-05-10T20:56:11;6.82;;;4.72;;
18206;SDS011;9229;52.354;20.886;2023-05-10T21:01:15;12.05;;;5.28;;
18206;SDS011;9229;52.354;20.886;2023-05-10T21:06:18;12.25;;;5.30;;
18206;SDS011;9229;52.354;20.886;2023-05-10T21:11:20;14.20;;;5.40;;
18206;SDS011;9229;52.354;20.886;2023-05-10T21:16:23;7.85;;;4.53;;
18206;SDS011;9229;52.354;20.886;2023-05-10T21:21:26;7.70;;;5.35;;
18206;SDS011;9229;52.354;20.886;2023-05-10T21:26:30;10.85;;;5.63;;
18206;SDS011;9229;52.354;20.886;2023-05-10T21:31:33;5.05;;;4.22;;
18206;SDS011;9229;52.354;20.886;2023-05-10T21:36:35;6.80;;;4.65;;
18206;SDS011;9229;52.354;20.886;2023-05-10T21:41:39;5.70;;;4.45;;
18206;SDS011;9229;52.354;20.886;2023-05-10T21:46:43;5.65;;;4.85;;
18206;SDS011;9229;52.354;20.886;2023-05-10T21:51:45;5.10;;;4.00;;
18206;SDS011;9229;52.354;20.886;2023-05-10T21:56:47;5.18;;;4.10;;
18206;SDS011;9229;52.354;20.886;2023-05-10T22:01:51;4.53;;;4.03;;
18206;SDS011;9229;52.354;20.886;2023-05-10T22:06:53;4.00;;;3.70;;
18206;SDS011;9229;52.354;20.886;2023-05-10T22:11:56;6.32;;;4.05;;
18206;SDS011;9229;52.354;20.886;2023-05-10T22:17:00;4.18;;;3.85;;
18206;SDS011;9229;52.354;20.886;2023-05-10T22:22:03;5.88;;;4.00;;
18206;SDS011;9229;52.354;20.886;2023-05-10T22:27:04;5.72;;;3.90;;
18206;SDS011;9229;52.354;20.886;2023-05-10T22:32:08;4.95;;;4.00;;
18206;SDS011;9229;52.354;20.886;2023-05-10T22:37:10;10.48;;;3.90;;
18206;SDS011;9229;52.354;20.886;2023-05-10T22:42:22;4.63;;;3.58;;
18206;SDS011;9229;52.354;20.886;2023-05-10T22:47:30;5.15;;;3.88;;
18206;SDS011;9229;52.354;20.886;2023-05-10T22:52:32;6.13;;;4.22;;
18206;SDS011;9229;52.354;20.886;2023-05-10T22:57:34;4.72;;;4.22;;
18206;SDS011;9229;52.354;20.886;2023-05-10T23:02:38;7.72;;;3.95;;
18206;SDS011;9229;52.354;20.886;2023-05-10T23:07:40;8.20;;;4.20;;
18206;SDS011;9229;52.354;20.886;2023-05-10T23:12:42;4.43;;;4.10;;
18206;SDS011;9229;52.354;20.886;2023-05-10T23:17:46;6.97;;;4.43;;
18206;SDS011;9229;52.354;20.886;2023-05-10T23:22:48;6.57;;;4.05;;
18206;SDS011;9229;52.354;20.886;2023-05-10T23:27:50;4.18;;;3.65;;
18206;SDS011;9229;52.354;20.886;2023-05-10T23:32:53;7.10;;;3.75;;
18206;SDS011;9229;52.354;20.886;2023-05-10T23:37:55;5.15;;;4.13;;
18206;SDS011;9229;52.354;20.886;2023-05-10T23:42:58;5.07;;;3.80;;
18206;SDS011;9229;52.354;20.886;2023-05-10T23:48:02;3.78;;;3.47;;
18206;SDS011;9229;52.354;20.886;2023-05-10T23:53:04;4.20;;;3.80;;
18206;SDS011;9229;52.354;20.886;2023-05-10T23:58:06;4.25;;;3.65;;
